createdAt,value
2019-05-07T00:00:45.654Z,9.00
2019-05-07T00:03:16.328Z,9.00
2019-05-07T00:05:46.078Z,9.00
2019-05-07T00:08:15.763Z,9.00
2019-05-07T00:10:45.511Z,9.00
2019-05-07T00:13:15.217Z,8.90
2019-05-07T00:15:44.997Z,8.90
2019-05-07T00:18:14.688Z,8.90
2019-05-07T00:20:44.290Z,8.80
2019-05-07T00:23:13.884Z,8.80
2019-05-07T00:25:43.496Z,8.70
2019-05-07T00:28:13.151Z,8.70
2019-05-07T00:30:42.754Z,8.60
2019-05-07T00:33:13.187Z,8.60
2019-05-07T00:35:50.322Z,8.50
2019-05-07T00:38:22.419Z,8.50
2019-05-07T00:40:59.638Z,8.40
2019-05-07T00:43:32.269Z,8.40
2019-05-07T00:46:03.588Z,8.30
2019-05-07T00:48:33.140Z,8.30
2019-05-07T00:51:22.481Z,8.30
2019-05-07T00:53:52.136Z,8.20
2019-05-07T00:56:22.847Z,8.20
2019-05-07T00:58:53.541Z,8.20
2019-05-07T01:01:23.255Z,8.10
2019-05-07T01:03:53.512Z,8.10
2019-05-07T01:06:26.374Z,8.00
2019-05-07T01:08:54.655Z,7.90
2019-05-07T01:11:24.247Z,7.80
2019-05-07T01:13:53.871Z,7.80
2019-05-07T01:16:23.498Z,7.80
2019-05-07T01:18:53.778Z,7.70
2019-05-07T01:21:23.496Z,7.70
2019-05-07T01:23:53.168Z,7.60
2019-05-07T01:26:23.780Z,7.60
2019-05-07T01:28:59.089Z,7.60
2019-05-07T01:31:32.894Z,7.60
2019-05-07T01:34:04.303Z,7.70
2019-05-07T01:36:34.043Z,7.70
2019-05-07T01:39:04.696Z,7.70
2019-05-07T01:41:34.489Z,7.70
2019-05-07T01:44:04.293Z,7.70
2019-05-07T01:46:33.846Z,7.80
2019-05-07T01:49:03.532Z,7.80
2019-05-07T01:51:33.180Z,7.80
2019-05-07T01:54:03.020Z,7.80
2019-05-07T01:56:33.216Z,7.80
2019-05-07T01:59:02.965Z,7.90
2019-05-07T02:01:33.156Z,7.90
2019-05-07T02:04:08.088Z,8.00
2019-05-07T02:06:39.281Z,8.00
2019-05-07T02:09:12.851Z,8.00
2019-05-07T02:11:43.534Z,8.00
2019-05-07T02:14:13.592Z,8.10
2019-05-07T02:16:43.462Z,8.10
2019-05-07T02:19:13.147Z,8.20
2019-05-07T02:21:42.761Z,8.20
2019-05-07T02:24:12.610Z,8.20
2019-05-07T02:29:12.097Z,8.10
2019-05-07T02:31:43.831Z,8.10
2019-05-07T02:34:14.138Z,8.20
2019-05-07T02:36:44.096Z,8.20
2019-05-07T02:39:33.070Z,8.20
2019-05-07T02:42:03.678Z,8.20
2019-05-07T02:44:34.500Z,8.20
2019-05-07T02:47:17.870Z,8.20
2019-05-07T02:49:53.616Z,8.20
2019-05-07T02:52:43.438Z,8.20
2019-05-07T02:55:13.591Z,8.20
2019-05-07T02:57:43.592Z,8.20
2019-05-07T03:00:14.632Z,8.10
2019-05-07T03:02:44.844Z,8.10
2019-05-07T03:05:14.533Z,8.10
2019-05-07T03:07:44.239Z,8.00
2019-05-07T03:10:14.087Z,8.00
2019-05-07T03:12:43.803Z,8.00
2019-05-07T03:15:13.612Z,7.90
2019-05-07T03:17:43.280Z,7.90
2019-05-07T03:20:14.579Z,7.90
2019-05-07T03:22:44.589Z,7.90
2019-05-07T03:25:15.196Z,7.90
2019-05-07T03:27:45.745Z,7.80
2019-05-07T03:30:25.542Z,7.80
2019-05-07T03:32:56.209Z,7.80
2019-05-07T03:35:37.878Z,7.70
2019-05-07T03:38:09.572Z,7.70
2019-05-07T03:40:39.315Z,7.70
2019-05-07T03:43:09.055Z,7.70
2019-05-07T03:45:42.963Z,7.60
2019-05-07T03:48:16.117Z,7.60
2019-05-07T03:50:45.750Z,7.60
2019-05-07T03:53:15.429Z,7.60
2019-05-07T03:55:45.217Z,7.40
2019-05-07T03:58:15.132Z,7.40
2019-05-07T04:00:44.658Z,7.40
2019-05-07T04:03:19.037Z,7.40
2019-05-07T04:05:47.114Z,7.40
2019-05-07T04:08:17.708Z,7.40
2019-05-07T04:10:47.495Z,7.30
2019-05-07T04:13:18.081Z,7.30
2019-05-07T04:15:47.775Z,7.30
2019-05-07T04:18:18.943Z,7.30
2019-05-07T04:20:48.569Z,7.30
2019-05-07T04:23:18.261Z,7.30
2019-05-07T04:25:55.040Z,7.30
2019-05-07T04:28:28.884Z,7.30
2019-05-07T04:31:02.541Z,7.30
2019-05-07T04:33:33.343Z,7.40
2019-05-07T04:36:04.905Z,7.40
2019-05-07T04:38:35.422Z,7.40
2019-05-07T04:41:05.185Z,7.50
2019-05-07T04:43:34.942Z,7.50
2019-05-07T04:46:04.632Z,7.50
2019-05-07T04:48:34.418Z,7.60
2019-05-07T04:51:05.734Z,7.60
2019-05-07T04:53:35.472Z,7.60
2019-05-07T04:56:05.237Z,7.70
2019-05-07T04:58:34.853Z,7.80
2019-05-07T05:01:07.755Z,7.80
2019-05-07T05:03:39.246Z,7.90
2019-05-07T05:06:13.704Z,8.00
2019-05-07T05:08:43.698Z,8.10
2019-05-07T05:11:13.613Z,8.20
2019-05-07T05:13:44.409Z,8.30
2019-05-07T05:16:24.923Z,8.40
2019-05-07T05:18:54.855Z,8.40
2019-05-07T05:21:37.907Z,8.50
2019-05-07T05:24:15.047Z,8.60
2019-05-07T05:26:44.768Z,8.70
2019-05-07T05:29:14.491Z,8.80
2019-05-07T05:31:44.248Z,8.90
2019-05-07T05:34:13.885Z,9.00
2019-05-07T05:36:44.724Z,9.10
2019-05-07T05:39:14.431Z,9.20
2019-05-07T05:41:45.729Z,9.30
2019-05-07T05:44:19.731Z,9.50
2019-05-07T05:46:52.496Z,9.60
2019-05-07T05:49:22.918Z,9.70
2019-05-07T05:52:06.607Z,9.90
2019-05-07T05:54:44.216Z,10.00
2019-05-07T05:57:19.528Z,10.10
2019-05-07T05:59:58.976Z,10.20
2019-05-07T06:02:35.567Z,10.40
2019-05-07T06:05:08.227Z,10.50
2019-05-07T06:07:45.300Z,10.70
2019-05-07T06:10:28.609Z,10.80
2019-05-07T06:13:02.833Z,11.00
2019-05-07T06:15:34.104Z,11.20
2019-05-07T06:18:18.848Z,11.40
2019-05-07T06:20:47.791Z,11.60
2019-05-07T06:23:22.469Z,11.90
2019-05-07T06:25:52.540Z,12.10
2019-05-07T06:28:23.343Z,12.20
2019-05-07T06:30:53.038Z,12.50
2019-05-07T06:33:23.173Z,12.60
2019-05-07T06:35:53.985Z,12.80
2019-05-07T06:38:25.042Z,13.00
2019-05-07T06:41:08.226Z,13.10
2019-05-07T06:43:42.507Z,13.30
2019-05-07T06:46:13.913Z,13.50
2019-05-07T06:48:46.244Z,13.60
2019-05-07T06:51:17.555Z,13.70
2019-05-07T06:53:47.393Z,13.90
2019-05-07T06:56:16.296Z,14.00
2019-05-07T06:58:49.072Z,14.10
2019-05-07T07:01:23.182Z,14.20
2019-05-07T07:04:09.515Z,14.30
2019-05-07T07:06:49.712Z,14.30
2019-05-07T07:09:27.547Z,14.30
2019-05-07T07:12:01.992Z,14.30
2019-05-07T07:14:33.183Z,14.30
2019-05-07T07:17:03.234Z,14.40
2019-05-07T07:19:35.592Z,14.50
2019-05-07T07:22:03.518Z,14.60
2019-05-07T07:24:33.157Z,14.70
2019-05-07T07:27:02.850Z,14.90
2019-05-07T07:29:34.275Z,15.00
2019-05-07T07:32:05.613Z,15.20
2019-05-07T07:34:37.006Z,15.30
2019-05-07T07:37:16.979Z,15.50
2019-05-07T07:39:45.908Z,15.60
2019-05-07T07:42:15.380Z,15.80
2019-05-07T07:44:45.791Z,15.90
2019-05-07T07:47:22.593Z,16.00
2019-05-07T07:49:52.760Z,16.00
2019-05-07T07:52:22.973Z,16.10
2019-05-07T07:54:53.006Z,16.20
2019-05-07T07:57:42.708Z,16.20
2019-05-07T08:00:18.617Z,16.30
2019-05-07T08:02:49.881Z,16.30
2019-05-07T08:05:21.866Z,16.40
2019-05-07T08:07:52.967Z,16.40
2019-05-07T08:10:22.755Z,16.40
2019-05-07T08:12:52.616Z,16.50
2019-05-07T08:15:24.697Z,16.50
2019-05-07T08:17:54.891Z,16.60
2019-05-07T08:20:25.403Z,16.70
2019-05-07T08:22:55.139Z,16.70
2019-05-07T08:25:26.388Z,16.70
2019-05-07T08:27:58.151Z,16.70
2019-05-07T08:30:29.054Z,16.80
2019-05-07T08:33:02.924Z,16.80
2019-05-07T08:35:34.356Z,16.90
2019-05-07T08:38:04.016Z,17.00
2019-05-07T08:40:33.793Z,17.10
2019-05-07T08:43:03.498Z,17.10
2019-05-07T08:45:52.393Z,17.30
2019-05-07T08:48:35.385Z,17.30
2019-05-07T08:51:05.096Z,17.40
2019-05-07T08:53:34.704Z,17.40
2019-05-07T08:56:04.516Z,17.60
2019-05-07T08:58:34.180Z,17.60
2019-05-07T09:01:03.901Z,17.70
2019-05-07T09:03:43.322Z,17.80
2019-05-07T09:06:14.613Z,17.90
2019-05-07T09:08:44.328Z,18.00
2019-05-07T09:11:14.034Z,18.10
2019-05-07T09:13:43.796Z,18.20
2019-05-07T09:16:13.418Z,18.30
2019-05-07T09:18:43.145Z,18.40
2019-05-07T09:21:12.880Z,18.50
2019-05-07T09:23:43.627Z,18.60
2019-05-07T09:26:14.997Z,18.70
2019-05-07T09:28:47.777Z,18.90
2019-05-07T09:31:36.768Z,18.90
2019-05-07T09:34:06.392Z,19.20
2019-05-07T09:36:43.364Z,19.30
2019-05-07T09:39:13.229Z,19.50
2019-05-07T09:41:42.090Z,19.60
2019-05-07T09:44:12.033Z,19.70
2019-05-07T09:46:43.016Z,19.80
2019-05-07T09:49:13.240Z,20.00
2019-05-07T09:51:42.769Z,20.20
2019-05-07T09:54:12.809Z,20.30
2019-05-07T09:56:42.659Z,20.40
2019-05-07T09:59:12.589Z,20.60
2019-05-07T10:01:42.431Z,20.70
2019-05-07T10:04:11.386Z,20.90
2019-05-07T10:06:42.476Z,21.00
2019-05-07T10:09:14.238Z,21.20
2019-05-07T10:11:45.549Z,21.20
2019-05-07T10:14:15.267Z,21.30
2019-05-07T10:16:52.397Z,21.30
2019-05-07T10:19:23.883Z,21.40
2019-05-07T10:21:53.731Z,21.50
2019-05-07T10:24:22.636Z,21.60
2019-05-07T10:26:53.156Z,21.70
2019-05-07T10:29:23.010Z,21.90
2019-05-07T10:31:52.887Z,21.90
2019-05-07T10:34:22.884Z,21.90
2019-05-07T10:36:52.621Z,22.00
2019-05-07T10:39:22.056Z,22.20
2019-05-07T10:41:51.784Z,22.30
2019-05-07T10:44:23.233Z,22.40
2019-05-07T10:47:12.126Z,22.60
2019-05-07T10:49:45.959Z,22.80
2019-05-07T10:52:15.670Z,22.90
2019-05-07T10:54:56.808Z,23.00
2019-05-07T10:57:15.763Z,23.10
2019-05-07T10:59:45.383Z,23.10
2019-05-07T11:02:16.709Z,23.10
2019-05-07T11:07:18.321Z,23.10
2019-05-07T11:09:48.017Z,23.20
2019-05-07T11:12:16.987Z,23.20
2019-05-07T11:14:46.747Z,23.00
2019-05-07T11:17:22.352Z,23.00
2019-05-07T11:19:53.162Z,23.00
2019-05-07T11:22:22.932Z,23.20
2019-05-07T11:24:52.222Z,23.40
2019-05-07T11:27:22.535Z,23.70
2019-05-07T11:29:52.350Z,23.90
2019-05-07T11:32:21.633Z,23.90
2019-05-07T11:34:52.813Z,23.80
2019-05-07T11:37:22.623Z,23.80
2019-05-07T11:39:52.324Z,23.80
2019-05-07T11:42:23.805Z,23.70
2019-05-07T11:44:54.998Z,23.70
2019-05-07T11:47:26.573Z,23.70
2019-05-07T11:50:15.640Z,23.90
2019-05-07T11:53:01.910Z,24.10
2019-05-07T11:55:31.730Z,24.20
2019-05-07T11:58:02.431Z,24.30
2019-05-07T12:00:38.335Z,24.30
2019-05-07T12:03:08.198Z,24.20
2019-05-07T12:05:37.847Z,24.30
2019-05-07T12:08:08.682Z,24.30
2019-05-07T12:10:38.337Z,24.30
2019-05-07T12:13:07.348Z,24.30
2019-05-07T12:18:08.887Z,24.40
2019-05-07T12:20:38.577Z,24.40
2019-05-07T12:23:07.430Z,24.30
2019-05-07T12:25:36.905Z,24.10
2019-05-07T12:28:05.880Z,23.80
2019-05-07T12:30:53.343Z,23.70
2019-05-07T12:33:24.663Z,23.50
2019-05-07T12:35:54.371Z,23.20
2019-05-07T12:38:23.291Z,22.90
2019-05-07T12:40:52.759Z,22.80
2019-05-07T12:43:21.654Z,22.70
2019-05-07T12:45:52.463Z,23.00
2019-05-07T12:48:22.327Z,23.20
2019-05-07T12:50:53.638Z,23.40
2019-05-07T12:53:31.878Z,23.40
2019-05-07T12:56:03.325Z,23.30
2019-05-07T12:58:33.092Z,23.30
2019-05-07T13:01:06.476Z,23.20
2019-05-07T13:03:37.708Z,23.00
2019-05-07T13:06:07.462Z,23.00
2019-05-07T13:08:37.874Z,23.00
2019-05-07T13:11:07.442Z,23.10
2019-05-07T13:13:37.309Z,23.30
2019-05-07T13:16:07.088Z,23.50
2019-05-07T13:18:35.950Z,23.60
2019-05-07T13:21:05.560Z,23.50
2019-05-07T13:23:34.450Z,23.30
2019-05-07T13:26:04.047Z,23.40
2019-05-07T13:28:33.915Z,23.60
2019-05-07T13:31:03.667Z,23.90
2019-05-07T13:33:35.546Z,23.90
2019-05-07T13:36:05.438Z,23.90
2019-05-07T13:38:55.153Z,23.90
2019-05-07T13:41:44.220Z,23.70
2019-05-07T13:44:15.627Z,23.60
2019-05-07T13:46:45.878Z,23.40
2019-05-07T13:49:15.580Z,23.40
2019-05-07T13:51:44.654Z,23.60
2019-05-07T13:54:14.391Z,23.80
2019-05-07T13:56:44.106Z,23.90
2019-05-07T13:59:13.794Z,23.60
2019-05-07T14:01:53.208Z,23.60
2019-05-07T14:04:58.731Z,23.70
2019-05-07T14:07:32.128Z,24.00
2019-05-07T14:10:02.363Z,24.40
2019-05-07T14:12:33.826Z,24.60
2019-05-07T14:15:06.373Z,24.80
2019-05-07T14:17:36.146Z,25.00
2019-05-07T14:20:06.869Z,25.30
2019-05-07T14:22:36.776Z,25.90
2019-05-07T14:25:07.420Z,26.50
2019-05-07T14:27:38.797Z,27.00
2019-05-07T14:30:09.582Z,27.40
2019-05-07T14:32:42.039Z,27.90
2019-05-07T14:35:19.732Z,28.80
2019-05-07T14:37:52.349Z,30.50
2019-05-07T14:40:24.906Z,32.80
2019-05-07T14:43:05.750Z,35.60
2019-05-07T14:45:35.508Z,38.00
2019-05-07T14:48:05.261Z,39.10
2019-05-07T14:50:35.034Z,39.20
2019-05-07T14:53:04.879Z,40.20
2019-05-07T14:55:34.671Z,40.90
2019-05-07T14:58:04.536Z,41.20
2019-05-07T15:00:35.291Z,41.60
2019-05-07T15:03:05.189Z,41.70
2019-05-07T15:05:34.947Z,41.60
2019-05-07T15:08:10.581Z,41.90
2019-05-07T15:10:38.988Z,42.10
2019-05-07T15:13:08.784Z,42.10
2019-05-07T15:15:38.505Z,42.10
2019-05-07T15:18:18.731Z,43.00
2019-05-07T15:20:48.588Z,43.40
2019-05-07T15:23:20.035Z,43.50
2019-05-07T15:25:51.604Z,43.00
2019-05-07T15:28:22.802Z,43.10
2019-05-07T15:30:56.779Z,43.40
2019-05-07T15:33:28.333Z,43.40
2019-05-07T15:35:59.583Z,43.60
2019-05-07T15:38:29.359Z,43.40
2019-05-07T15:40:59.034Z,42.70
2019-05-07T15:43:29.724Z,41.10
2019-05-07T15:46:01.849Z,39.90
2019-05-07T15:48:32.683Z,39.70
2019-05-07T15:51:02.365Z,40.20
2019-05-07T15:53:51.902Z,40.50
2019-05-07T15:56:21.781Z,40.60
2019-05-07T15:58:51.791Z,40.60
2019-05-07T16:01:22.233Z,40.80
2019-05-07T16:03:54.988Z,40.70
2019-05-07T16:06:23.492Z,40.90
2019-05-07T16:08:54.792Z,40.90
2019-05-07T16:11:24.566Z,40.40
2019-05-07T16:14:07.231Z,39.60
2019-05-07T16:16:44.119Z,39.30
2019-05-07T16:19:15.420Z,38.80
2019-05-07T16:21:45.250Z,38.40
2019-05-07T16:24:14.850Z,38.00
2019-05-07T16:26:44.508Z,37.40
2019-05-07T16:29:14.275Z,37.00
2019-05-07T16:31:44.464Z,36.50
2019-05-07T16:34:17.114Z,35.80
2019-05-07T16:36:46.794Z,35.10
2019-05-07T16:39:16.335Z,34.50
2019-05-07T16:41:46.020Z,34.10
2019-05-07T16:44:15.645Z,33.80
2019-05-07T16:46:45.354Z,34.00
2019-05-07T16:49:15.094Z,33.90
2019-05-07T16:51:44.915Z,34.00
2019-05-07T16:54:15.564Z,34.40
2019-05-07T16:57:03.203Z,34.90
2019-05-07T16:59:33.131Z,34.50
2019-05-07T17:02:04.469Z,33.60
2019-05-07T17:04:34.661Z,32.90
2019-05-07T17:07:06.066Z,32.20
2019-05-07T17:09:35.752Z,31.50
2019-05-07T17:12:08.648Z,30.70
2019-05-07T17:14:40.014Z,29.70
2019-05-07T17:17:11.971Z,28.70
2019-05-07T17:19:42.539Z,27.90
2019-05-07T17:22:12.342Z,27.20
2019-05-07T17:24:42.520Z,26.60
2019-05-07T17:27:12.274Z,26.10
2019-05-07T17:29:44.877Z,25.60
2019-05-07T17:32:14.534Z,25.20
2019-05-07T17:34:43.347Z,24.90
2019-05-07T17:37:12.964Z,24.40
2019-05-07T17:39:42.599Z,24.20
2019-05-07T17:42:13.442Z,23.80
2019-05-07T17:44:43.127Z,23.40
2019-05-07T17:47:14.983Z,23.00
2019-05-07T17:49:46.334Z,22.60
2019-05-07T17:52:15.978Z,22.30
2019-05-07T17:54:44.898Z,22.10
2019-05-07T17:57:15.905Z,21.80
2019-05-07T17:59:45.845Z,21.50
2019-05-07T18:02:24.959Z,21.00
2019-05-07T18:04:54.752Z,20.60
2019-05-07T18:07:24.431Z,20.30
2019-05-07T18:09:55.732Z,19.90
2019-05-07T18:12:24.752Z,19.60
2019-05-07T18:14:54.922Z,19.40
2019-05-07T18:17:28.832Z,19.10
2019-05-07T18:20:04.460Z,18.80
2019-05-07T18:22:40.526Z,18.70
2019-05-07T18:25:12.461Z,18.50
2019-05-07T18:27:42.401Z,18.30
2019-05-07T18:30:12.856Z,18.20
2019-05-07T18:32:44.347Z,18.10
2019-05-07T18:35:14.118Z,18.00
2019-05-07T18:37:53.848Z,17.90
2019-05-07T18:40:30.183Z,17.80
2019-05-07T18:43:06.226Z,17.80
2019-05-07T18:45:37.567Z,17.80
2019-05-07T18:48:09.055Z,17.70
2019-05-07T18:50:45.502Z,17.60
2019-05-07T18:53:17.851Z,17.60
2019-05-07T18:55:46.767Z,17.60
2019-05-07T18:58:22.397Z,17.60
2019-05-07T19:00:51.954Z,17.60
2019-05-07T19:03:21.960Z,17.50
2019-05-07T19:05:56.099Z,17.40
2019-05-07T19:08:27.146Z,17.30
2019-05-07T19:11:05.747Z,17.30
2019-05-07T19:13:38.708Z,17.20
2019-05-07T19:16:08.579Z,17.20
2019-05-07T19:18:37.613Z,17.20
2019-05-07T19:21:07.833Z,17.10
2019-05-07T19:23:52.879Z,17.00
2019-05-07T19:26:13.050Z,17.00
2019-05-07T19:28:45.174Z,17.00
2019-05-07T19:31:17.542Z,16.90
2019-05-07T19:33:55.006Z,16.90
2019-05-07T19:36:36.048Z,16.80
2019-05-07T19:39:15.621Z,16.80
2019-05-07T19:41:47.277Z,16.70
2019-05-07T19:44:16.256Z,16.70
2019-05-07T19:46:45.951Z,16.70
2019-05-07T19:49:17.236Z,16.60
2019-05-07T19:51:48.561Z,16.60
2019-05-07T19:54:19.948Z,16.60
2019-05-07T19:56:51.902Z,16.50
2019-05-07T19:59:22.438Z,16.50
2019-05-07T20:01:53.097Z,16.40
2019-05-07T20:04:22.817Z,16.30
2019-05-07T20:06:55.385Z,16.30
2019-05-07T20:09:26.857Z,16.20
2019-05-07T20:11:56.527Z,16.20
2019-05-07T20:14:30.077Z,16.10
2019-05-07T20:17:01.535Z,16.10
2019-05-07T20:19:32.319Z,16.10
2019-05-07T20:22:03.737Z,16.10
2019-05-07T20:24:33.210Z,16.00
2019-05-07T20:27:04.528Z,16.00
2019-05-07T20:29:34.446Z,15.90
2019-05-07T20:32:04.590Z,15.80
2019-05-07T20:34:38.622Z,15.80
2019-05-07T20:37:08.521Z,15.70
2019-05-07T20:39:38.484Z,15.70
2019-05-07T20:42:09.084Z,15.60
2019-05-07T20:44:38.698Z,15.60
2019-05-07T20:47:08.620Z,15.50
2019-05-07T20:49:43.065Z,15.50
2019-05-07T20:52:18.358Z,15.50
2019-05-07T20:54:55.541Z,15.40
2019-05-07T20:57:26.943Z,15.40
2019-05-07T20:59:57.940Z,15.40
2019-05-07T21:02:42.422Z,15.40
2019-05-07T21:05:03.489Z,15.30
2019-05-07T21:07:33.304Z,15.30
2019-05-07T21:10:03.555Z,15.20
2019-05-07T21:12:35.307Z,15.20
2019-05-07T21:15:12.410Z,15.10
2019-05-07T21:17:42.852Z,15.00
2019-05-07T21:20:12.787Z,14.90
2019-05-07T21:22:42.924Z,14.90
2019-05-07T21:25:12.633Z,14.80
2019-05-07T21:27:43.161Z,14.70
2019-05-07T21:30:17.561Z,14.70
2019-05-07T21:32:46.578Z,14.60
2019-05-07T21:35:15.673Z,14.50
2019-05-07T21:37:45.132Z,14.50
2019-05-07T21:40:14.262Z,14.40
2019-05-07T21:42:45.564Z,14.40
2019-05-07T21:45:15.562Z,14.30
2019-05-07T21:47:45.329Z,14.30
2019-05-07T21:50:15.233Z,14.20
2019-05-07T21:52:45.726Z,14.20
2019-05-07T21:55:17.327Z,14.10
2019-05-07T21:58:04.403Z,14.10
2019-05-07T22:00:35.857Z,14.00
2019-05-07T22:03:09.007Z,14.00
2019-05-07T22:05:44.374Z,13.90
2019-05-07T22:08:22.643Z,13.80
2019-05-07T22:10:52.529Z,13.80
2019-05-07T22:13:22.352Z,13.70
2019-05-07T22:15:55.225Z,13.70
2019-05-07T22:18:26.727Z,13.60
2019-05-07T22:20:59.742Z,13.60
2019-05-07T22:23:32.377Z,13.60
2019-05-07T22:26:16.658Z,13.50
2019-05-07T22:28:35.680Z,13.50
2019-05-07T22:31:12.728Z,13.40
2019-05-07T22:34:02.207Z,13.40
2019-05-07T22:36:32.982Z,13.30
2019-05-07T22:39:08.332Z,13.30
2019-05-07T22:41:39.747Z,13.30
2019-05-07T22:44:12.292Z,13.20
2019-05-07T22:46:43.152Z,13.20
2019-05-07T22:49:13.513Z,13.20
2019-05-07T22:51:43.277Z,13.20
2019-05-07T22:54:12.285Z,13.10
2019-05-07T22:56:58.366Z,13.20
2019-05-07T22:59:29.139Z,13.10
2019-05-07T23:02:02.886Z,13.10
2019-05-07T23:04:32.554Z,13.00
2019-05-07T23:07:02.528Z,13.00
2019-05-07T23:09:31.450Z,12.90
2019-05-07T23:12:04.347Z,12.90
2019-05-07T23:14:37.849Z,12.80
2019-05-07T23:17:07.668Z,12.80
2019-05-07T23:19:37.399Z,12.80
2019-05-07T23:22:07.212Z,12.70
2019-05-07T23:24:38.591Z,12.70
2019-05-07T23:27:08.143Z,12.70
2019-05-07T23:29:37.920Z,12.70
2019-05-07T23:32:07.833Z,12.70
2019-05-07T23:34:39.107Z,12.60
2019-05-07T23:37:11.755Z,12.60
2019-05-07T23:39:43.907Z,12.60
2019-05-07T23:42:19.978Z,12.60
2019-05-07T23:44:49.428Z,12.60
2019-05-07T23:47:19.235Z,12.60
2019-05-07T23:49:49.147Z,12.60
2019-05-07T23:52:18.192Z,12.60
2019-05-07T23:54:54.991Z,12.60
2019-05-07T23:57:24.694Z,12.50
2019-05-07T23:59:54.409Z,12.50
